Time;durP1;ratioP1;P1;durP2;ratioP2;P2;SDS_P1;SDS_P2;PMS_P1;PMS_P2;Temp;Humidity;BMP_temperature;BMP_pressure;BME280_temperature;BME280_humidity;BME280_pressure;Samples;Min_cycle;Max_cycle;Signal;HPM_P1;HPM_P2
2023/01/13 00:00:47;;;;;;;16.27;2.40;;;9.80;99.90;;;;;;5053032;28;20044;-75
2023/01/13 00:03:13;;;;;;;14.30;2.53;;;9.70;99.90;;;;;;5036524;28;20054;-75
2023/01/13 00:05:39;;;;;;;12.85;2.42;;;9.70;99.90;;;;;;5033460;28;20076;-76
2023/01/13 00:08:05;;;;;;;16.98;3.45;;;9.80;99.90;;;;;;5035225;28;20398;-76
2023/01/13 00:10:34;;;;;;;16.27;3.33;;;9.70;99.90;;;;;;5041453;28;20033;-75
2023/01/13 00:13:01;;;;;;;20.67;4.63;;;9.60;99.90;;;;;;5055102;28;20048;-76
2023/01/13 00:15:27;;;;;;;20.60;3.28;;;9.60;99.90;;;;;;5035935;28;20091;-76
2023/01/13 00:17:53;;;;;;;23.25;4.57;;;9.60;99.90;;;;;;5037173;28;20041;-76
2023/01/13 00:20:18;;;;;;;20.23;3.35;;;9.50;99.90;;;;;;5036721;28;20034;-76
2023/01/13 00:22:44;;;;;;;14.90;2.92;;;9.50;99.90;;;;;;5046532;28;20045;-76
2023/01/13 00:25:09;;;;;;;20.60;4.90;;;9.50;99.90;;;;;;5056831;28;20044;-76
2023/01/13 00:27:35;;;;;;;19.92;3.42;;;9.40;99.90;;;;;;5057068;28;20041;-76
2023/01/13 00:30:01;;;;;;;14.90;2.72;;;9.40;99.90;;;;;;5056761;28;20033;-76
2023/01/13 00:32:27;;;;;;;25.42;3.75;;;9.40;99.90;;;;;;5055713;28;20037;-76
2023/01/13 00:34:53;;;;;;;16.83;3.00;;;9.40;99.90;;;;;;5056828;28;20043;-75
2023/01/13 00:37:18;;;;;;;16.42;3.35;;;9.40;99.90;;;;;;5054724;28;20037;-76
2023/01/13 00:39:44;;;;;;;16.15;3.25;;;9.50;99.90;;;;;;5054332;28;20073;-76
2023/01/13 00:44:55;;;;;;;22.48;5.00;;;9.20;99.90;;;;;;5036805;28;20124;-76
2023/01/13 00:47:22;;;;;;;21.48;3.80;;;9.20;99.90;;;;;;5036621;28;20092;-76
2023/01/13 00:49:48;;;;;;;20.85;4.05;;;9.20;99.90;;;;;;5036222;28;20121;-76
2023/01/13 00:52:14;;;;;;;21.73;3.28;;;9.10;99.90;;;;;;5056105;28;20051;-76
2023/01/13 00:54:40;;;;;;;22.85;3.17;;;9.30;99.90;;;;;;5056364;28;20454;-76
2023/01/13 00:57:06;;;;;;;23.13;3.35;;;9.20;99.90;;;;;;5042421;28;20073;-76
2023/01/13 00:59:31;;;;;;;19.15;3.45;;;9.10;99.90;;;;;;5036452;28;20390;-76
2023/01/13 01:01:57;;;;;;;24.85;4.05;;;9.10;99.90;;;;;;5053263;28;20420;-76
2023/01/13 01:04:22;;;;;;;23.13;3.67;;;9.00;99.90;;;;;;5055905;28;20060;-76
2023/01/13 01:06:48;;;;;;;23.20;4.45;;;9.00;99.90;;;;;;5052854;28;20039;-76
2023/01/13 01:09:15;;;;;;;18.27;3.20;;;9.00;99.90;;;;;;5035990;28;20084;-76
2023/01/13 01:11:41;;;;;;;33.50;5.93;;;8.90;99.90;;;;;;5018168;28;20072;-76
2023/01/13 01:14:09;;;;;;;18.42;3.97;;;8.90;99.90;;;;;;5036225;28;20041;-76
2023/01/13 01:16:34;;;;;;;22.48;3.28;;;8.80;99.90;;;;;;5051517;28;20044;-76
2023/01/13 01:19:01;;;;;;;26.00;5.13;;;8.90;99.90;;;;;;5054221;28;20056;-76
2023/01/13 01:21:27;;;;;;;22.63;3.97;;;9.00;99.90;;;;;;5054847;28;20052;-76
2023/01/13 01:23:53;;;;;;;24.83;5.05;;;8.90;99.90;;;;;;5054550;28;20045;-76
2023/01/13 01:26:24;;;;;;;14.38;3.30;;;8.80;99.90;;;;;;5055757;28;20553;-75
2023/01/13 01:28:50;;;;;;;25.27;4.47;;;8.90;99.90;;;;;;5054746;28;20029;-76
2023/01/13 01:31:22;;;;;;;17.95;3.90;;;8.90;99.90;;;;;;5055730;28;20481;-76
2023/01/13 01:33:49;;;;;;;20.05;3.45;;;8.90;99.90;;;;;;5044750;28;20042;-76
2023/01/13 01:36:16;;;;;;;27.75;3.80;;;8.90;99.90;;;;;;5053057;28;20381;-76
2023/01/13 01:38:42;;;;;;;7.65;2.72;;;8.90;99.90;;;;;;5053974;28;20374;-76
2023/01/13 01:41:13;;;;;;;25.15;4.70;;;8.90;99.90;;;;;;5053949;28;20398;-76
2023/01/13 01:43:58;;;;;;;16.83;3.30;;;8.90;99.90;;;;;;5035487;28;20371;-75
2023/01/13 01:46:50;;;;;;;24.23;4.05;;;8.80;99.90;;;;;;5035447;28;20041;-76
2023/01/13 01:49:28;;;;;;;11.50;2.42;;;8.80;99.90;;;;;;5033561;28;20050;-76
2023/01/13 01:52:13;;;;;;;22.75;4.47;;;8.80;99.90;;;;;;5034639;28;20087;-76
2023/01/13 01:54:48;;;;;;;15.73;2.17;;;8.90;99.90;;;;;;5054358;28;20044;-76
2023/01/13 01:57:20;;;;;;;16.30;3.22;;;8.80;99.90;;;;;;5055489;28;20091;-76
2023/01/13 01:59:45;;;;;;;21.73;4.10;;;8.80;99.90;;;;;;5054227;28;20037;-76
2023/01/13 02:02:11;;;;;;;18.70;3.25;;;8.80;99.90;;;;;;5055235;28;20037;-76
2023/01/13 02:04:39;;;;;;;26.27;4.53;;;8.70;99.90;;;;;;5054846;28;20045;-76
2023/01/13 02:07:05;;;;;;;21.17;3.20;;;8.70;99.90;;;;;;5055083;28;20099;-75
2023/01/13 02:09:32;;;;;;;24.98;4.78;;;8.80;99.90;;;;;;5054034;28;20083;-76
2023/01/13 02:14:43;;;;;;;8.20;2.70;;;8.70;99.90;;;;;;5054942;28;20048;-76
2023/01/13 02:17:20;;;;;;;21.30;5.57;;;8.70;99.90;;;;;;5055020;28;20037;-76
2023/01/13 02:20:07;;;;;;;15.60;3.08;;;8.80;99.90;;;;;;5035911;28;20033;-76
2023/01/13 02:22:59;;;;;;;15.30;2.55;;;8.70;99.90;;;;;;5036742;28;20068;-76
2023/01/13 02:26:04;;;;;;;21.67;4.97;;;8.80;99.90;;;;;;5052188;28;20044;-75
2023/01/13 02:31:50;;;;;;;18.60;3.53;;;8.90;99.90;;;;;;5051193;28;20037;-75
2023/01/13 02:34:24;;;;;;;18.83;3.70;;;8.80;99.90;;;;;;5051615;28;20044;-76
2023/01/13 02:37:04;;;;;;;24.50;4.93;;;8.80;99.90;;;;;;5047357;28;20037;-76
2023/01/13 02:39:58;;;;;;;25.23;4.80;;;8.80;99.90;;;;;;5050493;28;20029;-76
2023/01/13 02:45:36;;;;;;;;;;;8.70;99.90;;;;;;5043580;28;20049;-76
2023/01/13 02:48:06;;;;;;;23.60;3.75;;;8.70;99.90;;;;;;5051676;28;19986;-76
2023/01/13 02:50:37;;;;;;;19.33;3.80;;;8.70;99.90;;;;;;5042307;28;20116;-76
2023/01/13 02:53:14;;;;;;;19.80;3.30;;;8.80;99.90;;;;;;5045201;28;20059;-76
2023/01/13 02:55:45;;;;;;;19.48;3.70;;;8.80;99.90;;;;;;5042584;28;20386;-76
2023/01/13 02:58:15;;;;;;;14.23;2.97;;;8.80;99.90;;;;;;5034457;28;20060;-76
2023/01/13 03:00:42;;;;;;;21.60;3.47;;;8.80;99.90;;;;;;5052295;28;20409;-76
2023/01/13 03:03:07;;;;;;;16.25;2.72;;;8.80;99.90;;;;;;5036010;28;20079;-76
2023/01/13 03:05:33;;;;;;;19.02;3.38;;;8.80;99.90;;;;;;5053860;28;20528;-76
2023/01/13 03:08:04;;;;;;;17.60;2.80;;;8.80;99.90;;;;;;5054342;28;20091;-76
2023/01/13 03:10:57;;;;;;;19.07;2.13;;;8.80;99.90;;;;;;5051545;28;20045;-76
2023/01/13 03:14:01;;;;;;;14.38;2.45;;;8.80;99.90;;;;;;5038935;28;20049;-76
2023/01/13 03:16:51;;;;;;;12.40;2.22;;;8.70;99.90;;;;;;5044256;28;20382;-76
2023/01/13 03:19:26;;;;;;;19.10;2.88;;;8.70;99.90;;;;;;5044665;28;20540;-76
2023/01/13 03:22:17;;;;;;;17.65;3.03;;;8.70;99.90;;;;;;5050782;28;20056;-76
2023/01/13 03:24:47;;;;;;;18.50;3.55;;;8.70;99.90;;;;;;5052915;28;20108;-75
2023/01/13 03:27:27;;;;;;;14.15;2.78;;;8.70;99.90;;;;;;5047387;28;20044;-76
2023/01/13 03:30:07;;;;;;;17.70;2.92;;;8.60;99.90;;;;;;5051257;28;20045;-75
2023/01/13 03:32:41;;;;;;;13.77;2.20;;;8.60;99.90;;;;;;5045530;28;20033;-76
2023/01/13 03:35:35;;;;;;;19.73;2.53;;;8.60;99.90;;;;;;5037801;28;20030;-76
2023/01/13 03:38:32;;;;;;;15.32;3.25;;;8.60;99.90;;;;;;5045262;28;20399;-76
2023/01/13 03:41:07;;;;;;;12.60;3.22;;;8.50;99.90;;;;;;5047446;28;20530;-75
2023/01/13 03:46:32;;;;;;;14.65;2.75;;;8.50;99.90;;;;;;5043178;28;20048;-76
2023/01/13 03:49:01;;;;;;;14.57;2.88;;;8.50;99.90;;;;;;5051878;28;20039;-76
2023/01/13 03:51:30;;;;;;;15.88;2.80;;;8.50;99.90;;;;;;5050861;28;20045;-76
2023/01/13 03:54:04;;;;;;;18.08;2.58;;;8.50;99.90;;;;;;5033528;28;20124;-76
2023/01/13 03:56:38;;;;;;;18.90;3.67;;;8.50;99.90;;;;;;5037445;28;20117;-76
2023/01/13 03:59:06;;;;;;;15.13;2.95;;;8.50;99.90;;;;;;5053152;28;20052;-76
2023/01/13 04:02:05;;;;;;;22.05;4.07;;;8.50;99.90;;;;;;5051890;28;20094;-76
2023/01/13 04:04:44;;;;;;;14.85;2.85;;;8.50;99.90;;;;;;5051428;28;20053;-76
2023/01/13 04:07:51;;;;;;;21.83;4.13;;;8.50;99.90;;;;;;5049295;28;20488;-76
2023/01/13 04:10:36;;;;;;;16.15;4.15;;;8.50;99.90;;;;;;5044088;28;20620;-76
2023/01/13 04:13:06;;;;;;;9.50;3.25;;;8.50;99.90;;;;;;5051743;28;20049;-75
2023/01/13 04:15:41;;;;;;;15.93;3.72;;;8.50;99.90;;;;;;5050670;28;20048;-75
2023/01/13 04:18:13;;;;;;;9.23;2.47;;;8.60;99.90;;;;;;5051669;28;20076;-76
2023/01/13 04:20:40;;;;;;;15.73;2.85;;;8.60;99.90;;;;;;5044907;28;20120;-76
2023/01/13 04:23:06;;;;;;;12.13;2.28;;;8.60;99.90;;;;;;5031561;28;20120;-76
2023/01/13 04:25:32;;;;;;;15.07;2.10;;;8.50;99.90;;;;;;5022425;28;20040;-75
2023/01/13 04:27:58;;;;;;;16.02;4.82;;;8.50;99.90;;;;;;5051618;28;20045;-76
2023/01/13 04:30:23;;;;;;;18.25;3.40;;;8.60;99.90;;;;;;5038779;28;20041;-76
2023/01/13 04:32:49;;;;;;;18.35;2.78;;;8.60;99.90;;;;;;5050601;28;20130;-76
2023/01/13 04:35:15;;;;;;;16.75;3.25;;;8.50;99.90;;;;;;5047066;28;20082;-75
2023/01/13 04:37:40;;;;;;;9.57;2.42;;;8.60;99.90;;;;;;5052675;28;20444;-76
2023/01/13 04:40:07;;;;;;;11.68;3.47;;;8.60;99.90;;;;;;5056647;28;20120;-76
2023/01/13 04:42:32;;;;;;;15.32;2.95;;;8.60;99.90;;;;;;5051467;28;20076;-76
2023/01/13 04:44:58;;;;;;;24.20;4.45;;;8.50;99.90;;;;;;5034695;28;20069;-76
2023/01/13 04:47:24;;;;;;;17.85;3.03;;;8.50;99.90;;;;;;5033931;28;20478;-75
2023/01/13 04:49:49;;;;;;;16.33;3.17;;;8.50;99.90;;;;;;5033331;28;20119;-76
2023/01/13 04:52:15;;;;;;;15.43;2.97;;;8.40;99.90;;;;;;5049802;28;20037;-76
2023/01/13 04:54:40;;;;;;;18.08;3.67;;;8.50;99.90;;;;;;5051586;28;20547;-75
2023/01/13 04:57:06;;;;;;;21.55;4.03;;;8.50;99.90;;;;;;5042931;28;20069;-75
2023/01/13 04:59:31;;;;;;;21.80;4.40;;;8.60;99.90;;;;;;5049935;28;20044;-76
2023/01/13 05:01:57;;;;;;;24.00;4.80;;;8.50;99.90;;;;;;5050642;28;20409;-76
2023/01/13 05:04:23;;;;;;;22.67;3.97;;;8.50;99.90;;;;;;5058046;28;20049;-75
2023/01/13 05:06:48;;;;;;;22.35;3.42;;;8.50;99.90;;;;;;5053994;28;20037;-75
2023/01/13 05:09:14;;;;;;;17.63;3.42;;;8.60;99.90;;;;;;5041001;28;20045;-75
2023/01/13 05:17:18;;;;;;;25.77;4.38;;;8.70;99.90;;;;;;5054655;28;20053;-76
2023/01/13 05:19:44;;;;;;;21.70;5.35;;;8.60;99.90;;;;;;5054751;28;20091;-76
2023/01/13 05:27:37;;;;;;;21.83;3.80;;;8.70;99.90;;;;;;5070453;28;20049;-74
2023/01/13 05:30:04;;;;;;;10.85;2.58;;;8.70;99.90;;;;;;5070709;28;20060;-73
2023/01/13 05:32:29;;;;;;;15.25;3.00;;;8.60;99.90;;;;;;5035810;28;20040;-74
2023/01/13 05:34:56;;;;;;;23.15;4.40;;;8.60;99.90;;;;;;5036920;28;20041;-74
2023/01/13 05:37:22;;;;;;;15.27;3.28;;;8.60;99.90;;;;;;5029688;28;20044;-73
2023/01/13 05:45:16;;;;;;;20.30;3.45;;;8.70;99.90;;;;;;5052243;28;20045;-77
2023/01/13 05:47:42;;;;;;;12.75;2.63;;;8.70;99.90;;;;;;5070122;28;20047;-74
2023/01/13 05:50:08;;;;;;;13.60;2.83;;;8.70;99.90;;;;;;5069862;28;20509;-74
2023/01/13 05:52:34;;;;;;;16.35;2.72;;;8.60;99.90;;;;;;5052939;28;20108;-74
2023/01/13 05:55:00;;;;;;;16.67;3.38;;;8.60;99.90;;;;;;5053156;28;20051;-74
2023/01/13 05:57:25;;;;;;;16.48;3.10;;;8.60;99.90;;;;;;5048915;28;20069;-74
2023/01/13 05:59:51;;;;;;;19.17;3.45;;;8.60;99.90;;;;;;5052158;28;20071;-74
2023/01/13 06:02:17;;;;;;;18.77;3.17;;;8.50;99.90;;;;;;5050754;28;20048;-74
2023/01/13 06:04:42;;;;;;;17.20;2.85;;;8.50;99.90;;;;;;5052686;28;20049;-74
2023/01/13 06:07:08;;;;;;;22.88;3.85;;;8.50;99.90;;;;;;5052274;28;20428;-74
2023/01/13 06:09:33;;;;;;;16.33;2.65;;;8.60;99.90;;;;;;5052985;28;20090;-74
2023/01/13 06:11:59;;;;;;;14.80;2.08;;;8.60;99.90;;;;;;5034896;28;20067;-74
2023/01/13 06:14:38;;;;;;;18.55;3.10;;;8.60;99.90;;;;;;5053567;28;20449;-74
2023/01/13 06:17:05;;;;;;;17.25;3.13;;;8.60;99.90;;;;;;5052775;28;20048;-74
2023/01/13 06:19:31;;;;;;;16.63;3.13;;;8.60;99.90;;;;;;5052211;28;20055;-73
2023/01/13 06:21:57;;;;;;;12.77;4.05;;;8.60;99.90;;;;;;5042774;28;20049;-74
2023/01/13 06:24:22;;;;;;;7.63;1.63;;;8.70;99.90;;;;;;5050136;28;20402;-74
2023/01/13 06:26:48;;;;;;;14.90;2.70;;;8.60;99.90;;;;;;5051068;28;20041;-74
2023/01/13 06:29:15;;;;;;;10.30;2.05;;;8.60;99.90;;;;;;5053701;28;20044;-74
2023/01/13 06:31:41;;;;;;;9.77;2.22;;;8.60;99.90;;;;;;5050761;28;20397;-74
2023/01/13 06:34:12;;;;;;;10.90;1.73;;;8.60;99.90;;;;;;5045941;28;20036;-74
2023/01/13 06:36:42;;;;;;;14.32;2.70;;;8.60;99.90;;;;;;5047299;28;20509;-74
2023/01/13 06:39:13;;;;;;;14.63;3.38;;;8.70;99.90;;;;;;5053221;28;20052;-74
2023/01/13 06:44:23;;;;;;;17.20;2.53;;;8.60;99.90;;;;;;5049659;28;20490;-73
2023/01/13 06:46:50;;;;;;;11.45;2.15;;;8.70;99.90;;;;;;5055839;28;20042;-74
2023/01/13 06:49:16;;;;;;;14.55;3.08;;;8.70;99.90;;;;;;5035538;28;20435;-74
2023/01/13 06:51:41;;;;;;;9.73;1.70;;;8.70;99.90;;;;;;5055213;28;20120;-74
2023/01/13 06:54:07;;;;;;;17.30;3.53;;;8.70;99.90;;;;;;5052988;28;20040;-74
2023/01/13 06:56:33;;;;;;;6.55;1.15;;;8.60;99.90;;;;;;5048104;28;20041;-74
2023/01/13 06:58:58;;;;;;;10.95;1.85;;;8.70;99.90;;;;;;5036519;28;20404;-74
2023/01/13 07:01:24;;;;;;;8.85;1.90;;;8.70;99.90;;;;;;5049701;28;20571;-74
2023/01/13 07:03:50;;;;;;;7.38;1.98;;;8.60;99.90;;;;;;5050521;28;20452;-76
2023/01/13 07:06:16;;;;;;;16.48;2.38;;;8.60;99.90;;;;;;5034553;28;20067;-76
2023/01/13 07:08:41;;;;;;;13.93;2.00;;;8.60;99.90;;;;;;5041484;28;20041;-76
2023/01/13 07:11:07;;;;;;;8.73;1.88;;;8.60;99.90;;;;;;5066666;28;20032;-74
2023/01/13 07:16:22;;;;;;;10.93;2.47;;;8.50;99.90;;;;;;5048555;28;20048;-74
2023/01/13 07:18:48;;;;;;;10.73;2.33;;;8.50;99.90;;;;;;5049868;28;20048;-74
2023/01/13 07:21:17;;;;;;;10.70;2.15;;;8.50;99.90;;;;;;5038239;28;20048;-73
2023/01/13 07:23:43;;;;;;;10.25;1.83;;;8.50;99.90;;;;;;5044874;28;20045;-75
2023/01/13 07:26:10;;;;;;;11.30;1.98;;;8.40;99.90;;;;;;5020074;28;20579;-75
2023/01/13 07:28:37;;;;;;;13.18;2.63;;;8.40;99.90;;;;;;5055959;28;20037;-75
2023/01/13 07:31:03;;;;;;;12.52;2.15;;;8.40;99.90;;;;;;5057344;28;20044;-75
2023/01/13 07:33:32;;;;;;;10.43;1.80;;;8.30;99.90;;;;;;5044389;28;20069;-75
2023/01/13 07:36:03;;;;;;;16.02;3.00;;;8.30;99.90;;;;;;5049011;28;20494;-75
2023/01/13 07:38:30;;;;;;;13.50;2.88;;;8.30;99.90;;;;;;5050634;28;20513;-75
2023/01/13 07:40:55;;;;;;;7.65;1.80;;;8.20;99.90;;;;;;5038634;28;20436;-75
2023/01/13 07:43:33;;;;;;;14.80;2.42;;;8.20;99.90;;;;;;5056052;28;20086;-74
2023/01/13 07:46:04;;;;;;;12.18;2.10;;;8.20;99.90;;;;;;5050262;28;20045;-75
2023/01/13 07:48:32;;;;;;;12.20;2.10;;;8.10;99.90;;;;;;5035122;28;20412;-75
2023/01/13 07:51:06;;;;;;;12.68;2.28;;;8.10;99.90;;;;;;5032630;28;20497;-75
2023/01/13 07:53:32;;;;;;;16.35;2.67;;;8.10;99.90;;;;;;5048331;28;20049;-80
2023/01/13 07:55:59;;;;;;;10.52;1.38;;;8.20;99.90;;;;;;5034027;28;20091;-79
2023/01/13 07:58:25;;;;;;;7.65;2.50;;;8.20;99.90;;;;;;5048193;28;20551;-79
2023/01/13 08:00:52;;;;;;;12.07;2.05;;;8.30;99.90;;;;;;5043827;28;20036;-79
2023/01/13 08:03:17;;;;;;;11.38;2.90;;;8.20;99.90;;;;;;5067505;28;20045;-79
2023/01/13 08:05:43;;;;;;;11.90;2.15;;;8.30;99.90;;;;;;5048558;28;20044;-79
2023/01/13 08:08:09;;;;;;;16.13;3.13;;;8.30;99.90;;;;;;5050885;28;20509;-76
2023/01/13 08:10:36;;;;;;;16.10;2.85;;;8.30;99.90;;;;;;5047860;28;20118;-76
2023/01/13 08:13:19;;;;;;;11.43;2.25;;;8.30;99.90;;;;;;5032896;28;20485;-76
2023/01/13 08:15:47;;;;;;;8.15;1.70;;;8.40;99.90;;;;;;5043341;28;20045;-77
2023/01/13 08:18:13;;;;;;;15.48;2.55;;;8.30;99.90;;;;;;5048584;28;20523;-78
2023/01/13 08:20:39;;;;;;;14.77;2.67;;;8.30;99.90;;;;;;5059468;28;20496;-76
2023/01/13 08:23:05;;;;;;;14.52;2.35;;;8.30;99.90;;;;;;5032836;28;20127;-76
2023/01/13 08:25:31;;;;;;;12.73;2.40;;;8.30;99.90;;;;;;5051524;28;20044;-76
2023/01/13 08:27:59;;;;;;;8.95;1.95;;;8.30;99.90;;;;;;5047121;28;20044;-76
2023/01/13 08:30:25;;;;;;;10.60;2.70;;;8.40;99.90;;;;;;5033241;28;20131;-76
2023/01/13 08:32:51;;;;;;;14.63;3.35;;;8.30;99.90;;;;;;5031615;28;20442;-77
2023/01/13 08:35:17;;;;;;;13.27;2.67;;;8.30;99.90;;;;;;5054656;28;20124;-78
2023/01/13 08:37:43;;;;;;;15.60;3.03;;;8.40;99.90;;;;;;5053665;28;20049;-77
2023/01/13 08:40:10;;;;;;;17.95;3.50;;;8.40;99.90;;;;;;5037583;28;20041;-80
2023/01/13 08:42:36;;;;;;;9.32;2.30;;;8.30;99.90;;;;;;5069785;28;20049;-79
2023/01/13 08:45:01;;;;;;;16.05;3.60;;;8.30;99.90;;;;;;5051969;28;20060;-81
2023/01/13 08:47:27;;;;;;;14.20;3.42;;;8.30;99.90;;;;;;5052614;28;20037;-80
2023/01/13 08:49:54;;;;;;;11.32;2.47;;;8.40;99.90;;;;;;5045738;28;20092;-80
2023/01/13 08:52:20;;;;;;;16.65;2.47;;;8.40;99.90;;;;;;5048809;28;20041;-80
2023/01/13 08:54:45;;;;;;;14.23;2.75;;;8.40;99.90;;;;;;5050391;28;20041;-79
2023/01/13 08:57:11;;;;;;;16.38;2.97;;;8.40;99.90;;;;;;5046313;28;20088;-79
2023/01/13 08:59:37;;;;;;;11.45;1.95;;;8.40;99.90;;;;;;5058924;28;20131;-68
2023/01/13 09:02:08;;;;;;;19.42;2.75;;;8.40;99.90;;;;;;5053883;28;20037;-74
2023/01/13 09:04:34;;;;;;;16.85;2.38;;;8.30;99.90;;;;;;5054071;28;20053;-75
2023/01/13 09:07:01;;;;;;;7.97;1.70;;;8.40;99.90;;;;;;5044797;28;20037;-75
2023/01/13 09:09:26;;;;;;;9.15;1.85;;;8.40;99.90;;;;;;5052546;28;20397;-75
2023/01/13 09:14:43;;;;;;;8.15;2.10;;;8.40;99.90;;;;;;5030253;28;20040;-75
2023/01/13 09:17:09;;;;;;;10.50;1.95;;;8.40;99.90;;;;;;5052361;28;20060;-74
2023/01/13 09:19:35;;;;;;;12.65;2.05;;;8.40;99.90;;;;;;5053577;28;20037;-75
2023/01/13 09:22:01;;;;;;;16.48;3.05;;;8.40;99.90;;;;;;5053587;28;20172;-75
2023/01/13 09:24:26;;;;;;;21.77;4.15;;;8.20;99.90;;;;;;5041588;28;20609;-74
2023/01/13 09:26:52;;;;;;;15.85;3.47;;;8.30;99.90;;;;;;5044796;28;20470;-74
2023/01/13 09:29:18;;;;;;;15.63;3.03;;;8.30;99.90;;;;;;5023924;28;20037;-74
2023/01/13 09:31:44;;;;;;;12.20;2.33;;;8.30;99.90;;;;;;5054865;28;20367;-74
2023/01/13 09:36:58;;;;;;;9.40;2.38;;;8.20;99.90;;;;;;5045145;28;20072;-73
2023/01/13 09:39:24;;;;;;;15.32;2.78;;;8.20;99.90;;;;;;5043351;28;20123;-73
2023/01/13 09:44:56;;;;;;;17.40;3.22;;;8.10;99.90;;;;;;5051680;28;20387;-73
2023/01/13 09:47:32;;;;;;;16.77;2.65;;;8.10;99.90;;;;;;5043448;28;20505;-74
2023/01/13 09:50:20;;;;;;;18.83;3.90;;;8.20;99.90;;;;;;5051930;28;20041;-74
2023/01/13 09:52:46;;;;;;;9.18;2.15;;;8.10;99.90;;;;;;5053322;28;20041;-74
2023/01/13 09:55:16;;;;;;;18.23;2.70;;;8.20;99.90;;;;;;5052759;28;20047;-74
2023/01/13 09:57:42;;;;;;;21.42;3.05;;;8.20;99.90;;;;;;5051067;28;20037;-74
2023/01/13 10:00:24;;;;;;;17.20;2.67;;;8.20;99.90;;;;;;5038805;28;20037;-75
2023/01/13 10:03:09;;;;;;;18.00;3.35;;;8.20;99.90;;;;;;5052557;28;20457;-75
2023/01/13 10:05:41;;;;;;;16.45;2.83;;;8.20;99.90;;;;;;5052611;28;20055;-76
2023/01/13 10:08:19;;;;;;;19.65;4.22;;;8.20;99.90;;;;;;5035870;28;20037;-74
2023/01/13 10:10:50;;;;;;;19.33;3.65;;;8.10;99.90;;;;;;5050734;28;20543;-75
2023/01/13 10:13:23;;;;;;;21.10;3.20;;;8.10;99.90;;;;;;5034928;28;20081;-75
2023/01/13 10:15:55;;;;;;;20.02;3.60;;;8.10;99.90;;;;;;5031666;28;20045;-75
2023/01/13 10:18:33;;;;;;;12.93;2.33;;;8.10;99.90;;;;;;5053118;28;20044;-76
2023/01/13 10:21:36;;;;;;;15.60;3.22;;;8.10;99.90;;;;;;5050912;28;20053;-76
2023/01/13 10:24:04;;;;;;;;;;;8.10;99.90;;;;;;5052526;28;20080;-77
2023/01/13 10:26:38;;;;;;;19.45;3.03;;;8.00;99.90;;;;;;5053086;28;19920;-76
2023/01/13 10:29:25;;;;;;;16.50;2.63;;;8.00;99.90;;;;;;5052430;28;20400;-76
2023/01/13 10:31:52;;;;;;;12.80;2.72;;;8.00;99.90;;;;;;5053434;28;20033;-76
2023/01/13 10:34:19;;;;;;;12.45;2.25;;;8.10;99.90;;;;;;5052216;28;20045;-76
2023/01/13 10:37:06;;;;;;;16.30;2.90;;;8.00;99.90;;;;;;5052229;28;20119;-76
2023/01/13 10:40:00;;;;;;;19.08;2.78;;;8.00;99.90;;;;;;5049293;28;20041;-76
2023/01/13 10:42:26;;;;;;;17.35;2.80;;;8.00;99.90;;;;;;5038538;28;20064;-76
2023/01/13 10:44:57;;;;;;;15.73;2.60;;;8.00;99.90;;;;;;5044490;28;20037;-76
2023/01/13 10:47:30;;;;;;;15.45;2.97;;;8.10;99.90;;;;;;5051806;28;20167;-76
2023/01/13 10:50:20;;;;;;;16.00;2.90;;;8.00;99.90;;;;;;5037182;28;20429;-76
2023/01/13 10:52:58;;;;;;;16.23;2.60;;;8.10;99.90;;;;;;5035310;28;20057;-76
2023/01/13 10:55:32;;;;;;;17.10;3.00;;;8.20;99.90;;;;;;5047519;28;20052;-75
2023/01/13 10:58:11;;;;;;;12.75;2.95;;;8.20;99.90;;;;;;5051822;28;20044;-75
2023/01/13 11:00:37;;;;;;;9.32;2.13;;;8.20;99.90;;;;;;5050059;28;20502;-76
2023/01/13 11:03:23;;;;;;;18.58;2.70;;;8.30;99.90;;;;;;5038268;28;20056;-76
2023/01/13 11:05:50;;;;;;;18.40;2.88;;;8.30;99.90;;;;;;5048707;28;20050;-75
2023/01/13 11:08:19;;;;;;;15.43;2.22;;;8.30;99.90;;;;;;5052441;28;20397;-76
2023/01/13 11:10:49;;;;;;;7.03;1.67;;;8.20;99.90;;;;;;5052198;28;20045;-75
2023/01/13 11:13:32;;;;;;;16.27;2.15;;;8.30;99.90;;;;;;5049209;28;20076;-75
2023/01/13 11:16:14;;;;;;;14.60;2.47;;;8.30;99.90;;;;;;5042099;28;20052;-76
2023/01/13 11:19:10;;;;;;;12.43;2.15;;;8.30;99.90;;;;;;5048621;28;20082;-76
2023/01/13 11:21:49;;;;;;;27.13;4.53;;;8.30;99.90;;;;;;5051608;28;20060;-76
2023/01/13 11:24:34;;;;;;;13.02;2.40;;;8.40;99.90;;;;;;5042552;28;20048;-76
2023/01/13 11:27:10;;;;;;;9.00;1.50;;;8.40;99.90;;;;;;5033894;28;20096;-76
2023/01/13 11:30:01;;;;;;;12.32;2.08;;;8.40;99.90;;;;;;5041461;28;20524;-76
2023/01/13 11:32:32;;;;;;;9.52;1.65;;;8.30;99.90;;;;;;5050021;28;20045;-77
2023/01/13 11:35:12;;;;;;;13.75;2.45;;;8.30;99.90;;;;;;5050568;28;20053;-76
2023/01/13 11:37:42;;;;;;;15.43;2.30;;;8.20;99.90;;;;;;5034101;28;20049;-76
2023/01/13 11:40:20;;;;;;;16.27;2.47;;;8.20;99.90;;;;;;5059267;28;20055;-76
2023/01/13 11:42:53;;;;;;;14.13;2.67;;;8.40;99.90;;;;;;5066338;28;20120;-76
2023/01/13 11:45:46;;;;;;;9.07;2.17;;;8.30;99.90;;;;;;5065736;28;20060;-76
2023/01/13 11:48:16;;;;;;;16.20;2.17;;;8.40;99.90;;;;;;5046452;28;20485;-76
2023/01/13 11:50:54;;;;;;;10.40;2.25;;;8.50;99.90;;;;;;5031368;28;20497;-77
2023/01/13 11:53:55;;;;;;;14.55;2.30;;;8.50;99.90;;;;;;5046924;28;20504;-76
2023/01/13 11:56:58;;;;;;;9.37;1.97;;;8.60;99.90;;;;;;4979306;28;20088;-76
2023/01/13 11:59:33;;;;;;;14.15;2.60;;;8.60;99.90;;;;;;5036349;28;20097;-76
2023/01/13 12:02:11;;;;;;;20.40;2.95;;;8.60;99.90;;;;;;5046117;28;20098;-76
2023/01/13 12:05:12;;;;;;;7.40;1.77;;;8.60;99.90;;;;;;5049682;28;20100;-76
2023/01/13 12:08:09;;;;;;;10.40;2.25;;;8.80;99.90;;;;;;5032200;28;20124;-76
2023/01/13 12:10:47;;;;;;;15.48;2.22;;;8.80;99.90;;;;;;5030321;28;20502;-76
2023/01/13 12:13:30;;;;;;;13.75;2.72;;;8.70;99.90;;;;;;5035703;28;20494;-76
2023/01/13 12:16:14;;;;;;;11.60;1.88;;;8.60;99.90;;;;;;5057737;28;20049;-76
2023/01/13 12:18:46;;;;;;;9.68;1.75;;;8.60;99.90;;;;;;5031731;28;20056;-77
2023/01/13 12:21:20;;;;;;;16.60;2.53;;;8.60;99.90;;;;;;5050097;28;20049;-76
2023/01/13 12:24:04;;;;;;;11.63;2.33;;;8.70;99.90;;;;;;5067303;28;20056;-76
2023/01/13 12:26:34;;;;;;;12.70;2.67;;;8.60;99.90;;;;;;5049069;28;20041;-76
2023/01/13 12:29:06;;;;;;;12.80;1.90;;;8.50;99.90;;;;;;5051860;28;20516;-76
2023/01/13 12:31:36;;;;;;;14.85;2.28;;;8.50;99.90;;;;;;5050834;28;20482;-76
2023/01/13 12:34:34;;;;;;;10.30;2.47;;;8.60;99.90;;;;;;5066503;28;20044;-76
2023/01/13 12:37:34;;;;;;;9.23;1.98;;;8.70;99.90;;;;;;5049602;28;20044;-76
2023/01/13 12:40:15;;;;;;;10.60;1.83;;;8.70;99.90;;;;;;5014894;28;20383;-76
2023/01/13 12:45:37;;;;;;;14.15;2.92;;;8.80;99.90;;;;;;5051502;28;20041;-76
2023/01/13 12:48:04;;;;;;;13.27;2.42;;;8.80;99.90;;;;;;5050340;28;20086;-76
2023/01/13 12:50:36;;;;;;;13.48;2.30;;;8.80;99.90;;;;;;5046414;28;20428;-76
2023/01/13 12:53:27;;;;;;;13.50;2.40;;;8.80;99.90;;;;;;5032586;28;20045;-77
2023/01/13 12:55:53;;;;;;;9.32;2.00;;;8.80;99.90;;;;;;5040461;28;20044;-76
2023/01/13 12:58:27;;;;;;;12.93;1.80;;;8.80;99.90;;;;;;5064020;28;20041;-76
2023/01/13 13:00:59;;;;;;;12.05;1.70;;;8.80;99.90;;;;;;5038730;28;20037;-76
2023/01/13 13:03:31;;;;;;;13.50;2.33;;;8.80;99.90;;;;;;5041534;28;20559;-76
2023/01/13 13:06:11;;;;;;;14.07;2.80;;;8.70;99.90;;;;;;5050866;28;20076;-77
2023/01/13 13:09:19;;;;;;;15.38;2.55;;;8.80;99.90;;;;;;5049814;28;20037;-76
2023/01/13 13:14:53;;;;;;;13.63;2.83;;;8.70;99.90;;;;;;5050178;28;20048;-76
2023/01/13 13:17:18;;;;;;;15.57;2.83;;;8.60;99.90;;;;;;5053165;28;20124;-77
2023/01/13 13:19:46;;;;;;;12.93;1.65;;;8.60;99.90;;;;;;5053607;28;20048;-77
2023/01/13 13:22:12;;;;;;;16.63;2.22;;;8.60;99.90;;;;;;5043260;28;20041;-77
2023/01/13 13:24:58;;;;;;;9.93;2.03;;;8.60;99.90;;;;;;5042480;28;20103;-76
2023/01/13 13:28:07;;;;;;;10.45;2.13;;;8.70;99.90;;;;;;5039468;28;20056;-76
2023/01/13 13:30:37;;;;;;;12.30;2.42;;;8.80;99.90;;;;;;5034186;28;20080;-76
2023/01/13 13:33:38;;;;;;;12.50;2.22;;;8.80;99.90;;;;;;5070966;28;20052;-77
2023/01/13 13:36:12;;;;;;;9.43;1.73;;;8.80;99.90;;;;;;5034430;28;20091;-76
2023/01/13 13:47:21;;;;;;;12.55;2.00;;;8.90;99.90;;;;;;5053819;28;20045;-76
2023/01/13 13:49:52;;;;;;;11.95;1.67;;;8.90;99.90;;;;;;5070823;28;20051;-76
2023/01/13 13:52:32;;;;;;;11.75;1.80;;;8.80;99.90;;;;;;5052699;28;20041;-76
2023/01/13 13:55:06;;;;;;;16.20;2.25;;;8.90;99.90;;;;;;5053775;28;20448;-76
2023/01/13 13:57:41;;;;;;;12.48;2.03;;;8.90;99.90;;;;;;5055876;28;20055;-76
2023/01/13 14:00:29;;;;;;;12.77;2.20;;;9.00;99.90;;;;;;5045382;28;20374;-76
2023/01/13 14:03:38;;;;;;;11.40;1.50;;;9.00;99.90;;;;;;5049644;28;20494;-76
2023/01/13 14:06:06;;;;;;;10.30;2.03;;;9.00;99.90;;;;;;5047797;28;20759;-74
2023/01/13 14:08:37;;;;;;;12.35;1.90;;;9.00;99.90;;;;;;5052874;28;20037;-74
2023/01/13 14:11:31;;;;;;;10.77;1.95;;;8.90;99.90;;;;;;5052354;28;20489;-74
2023/01/13 14:14:12;;;;;;;14.80;1.70;;;8.90;99.90;;;;;;5051099;28;20040;-74